Otsego, MI (49078)

6:44 AM EST on December 21, 2014 (GMT -0500)
Browns Hay Farm | Change Station
CLOSE
Current Station
Personal Weather Station
Location: ALLEGAN, MI
Elevation: 737 ft
Nearby Weather Stations

Elev 737 ft 42.52 °N, 85.77 °W | Updated 13 minutes ago

Overcast
Overcast
31.1 °F
Feels Like 27 °F
N
4.0
Wind Variable Wind from South
Gusts 6.0 mph

Today
High -- | Low -- °F
--% Chance of Precip.
Yesterday
High -- | Low -- °F
Precip. -- in
8:09 AM 5:12 PM
Waning Crescent, 0% visible
Pressure 30.30 in
Visibility 3.0 miles
Clouds Few 4100 ft
Overcast 5500 ft
Windchill 27 °F
Dew Point 29 °F
Humidity 90%
Rainfall 0.00 in
Snow Depth Not available.
UV 0 out of 12
Pollen .10 out of 12
Air Quality Not available.
Flu Activity Not available.
METAR KAZO 211053Z AUTO 17005KT 3SM BR FEW041 OVC055 M01/M03 A3026 RMK AO2 SLP260 T10111028

More Conditions Fewer Conditions

Pressure 30.30 in
Visibility 3.0 miles
Clouds Few 4100 ft
Overcast 5500 ft
Windchill 27 °F
Dew Point 29 °F
Humidity 90%
Rainfall 0.00 in
Snow Depth Not available.
UV 0 out of 12
Pollen .10 out of 12
Air Quality Not available.
Flu Activity Not available.
METAR KAZO 211053Z AUTO 17005KT 3SM BR FEW041 OVC055 M01/M03 A3026 RMK AO2 SLP260 T10111028

More Conditions Fewer Conditions

10-Day Weather Forecast

Almanac

Astronomy

Dec. 21, 2014 Rise Set
Actual Time
Civil Twilight
Nautical Twilight
Astronomical Twilight
Moon
Length of Visible Light
Length of Day
Tomorrow will be .
, % of the Moon is Illuminated

Today's Extremes

State Highs State Lows

Community

WunderPhotos

Upload Photos

1,779,371 photos uploaded!

WunderBlogs® & News

Nearby

Air Quality

  Air Quality AQ Index Pollutant
Not available.

Snow Depth

Station Depth Elevation

Earthquake Activity

City Distance Mag. Time & Date
Minimum magnitude displayed is 2.5.

Coastal Water Temperatures

Place Temperature

Nearby Weather Stations